Chollas Lake (167) Station Data

Red Flag Warning: No
Fire Weather Zone: 243
SDGE Region: Metro
Lat/Lon: 32.736/-117.067

Observations

Time Wind Speed/Gust Temp(F) RH Fuel Moist Fuel Temp(F) Dewpt(F) Tmax(F) Tmin(F) Accum Precip 10-min Precip SL Press(mb)
3/29 8:00am 63 2 G 5 57° 48% - - 38° 58.5° 52.6° - - -
3/29 7:50am 57 3 G 7 57° 49% - - 38° 58.5° 52.6° - - -
3/29 7:40am 57 4 G 9 56° 48% - - 37° 58.5° 52.6° - - -
3/29 7:30am 55 3 G 6 56° 49% - - 37° 58.5° 52.6° - - -
3/29 7:20am 72 3 G 5 55° 52% - - 37° 58.5° 52.6° - - -
3/29 7:10am 59 4 G 6 54° 53% - - 37° 58.5° 52.6° - - -
3/29 7:00am 49 1 G 4 54° 57% - - 39° 58.5° 52.6° - - -
3/29 6:50am 71 3 G 5 54° 58% - - 39° 58.5° 52.6° - - -
3/29 6:40am 71 3 G 6 54° 55% - - 38° 58.5° 52.6° - - -
3/29 6:30am 64 3 G 6 54° 55% - - 39° 58.5° 52.6° - - -
3/29 6:20am 55 4 G 6 54° 56% - - 39° 58.5° 52.6° - - -
3/29 6:10am 49 4 G 7 53° 59% - - 39° 58.5° 52.6° - - -
3/29 6:00am 45 2 G 4 54° 60% - - 40° 58.5° 53.3° - - -
3/29 5:50am 37 1 G 5 55° 58% - - 40° 58.5° 53.6° - - -
3/29 5:40am 51 2 G 4 55° 58% - - 40° 58.5° 53.6° - - -
3/29 5:30am 70 2 G 3 54° 62% - - 41° 58.5° 53.6° - - -
3/29 5:20am 70 2 G 4 54° 63% - - 42° 58.5° 53.6° - - -
3/29 5:10am 70 2 G 5 55° 61% - - 42° 58.5° 54.1° - - -
3/29 5:00am 65 2 G 6 55° 61% - - 42° 58.5° 54.4° - - -
3/29 4:50am 76 1 G 4 55° 60% - - 42° 58.5° 55° - - -
3/29 4:40am 73 2 G 4 56° 58% - - 42° 58.5° 55.4° - - -
3/29 4:30am 44 4 G 6 56° 58% - - 42° 58.5° 55.4° - - -
3/29 4:20am 52 3 G 7 56° 58% - - 42° 58.5° 55.4° - - -
3/29 4:10am 49 4 G 8 56° 57% - - 41° 58.5° 55.4° - - -
3/29 4:00am 39 3 G 8 56° 59% - - 42° 58.5° 55.4° - - -
3/29 3:50am 77 2 G 6 56° 59% - - 42° 58.5° 55.4° - - -
3/29 3:40am 89 3 G 7 57° 59% - - 42° 58.5° 55.4° - - -
3/29 3:30am 89 3 G 6 56° 59% - - 42° 58.5° 55.4° - - -
3/29 3:20am 78 3 G 7 56° 61% - - 43° 58.5° 55.4° - - -
3/29 3:10am 56 4 G 9 57° 60% - - 43° 58.5° 55.4° - - -
3/29 3:00am 56 4 G 8 56° 63% - - 43° 58.5° 55.4° - - -
3/29 2:50am 52 5 G 9 56° 64% - - 44° 58.5° 55.4° - - -
3/29 2:40am 55 4 G 9 56° 64% - - 44° 58.5° 55.4° - - -
3/29 2:30am 61 4 G 8 56° 63% - - 44° 58.5° 55.6° - - -
3/29 2:20am 57 4 G 10 56° 62% - - 44° 58.5° 55.8° - - -
3/29 2:10am 60 3 G 7 56° 62% - - 44° 58.5° 55.9° - - -
3/29 2:00am 52 5 G 8 57° 61% - - 43° 58.5° 56.1° - - -
3/29 1:50am 50 5 G 9 58° 59% - - 43° 58.5° 56.6° - - -
3/29 1:40am 45 5 G 8 57° 59% - - 43° 58.5° 56.6° - - -
3/29 1:30am 46 5 G 8 57° 58% - - 43° 58.5° 56.8° - - -
3/29 1:20am 59 4 G 7 57° 58% - - 43° 58.5° 56.8° - - -
3/29 1:10am 57 4 G 8 57° 57% - - 42° 58.5° 56.8° - - -
3/29 1:00am 58 3 G 6 57° 58% - - 42° 58.5° 56.8° - - -
3/29 12:50am 57 2 G 5 57° 58% - - 43° 58.5° 57.1° - - -
3/29 12:40am 51 4 G 7 58° 56% - - 42° 58.5° 57.2° - - -
3/29 12:30am 54 4 G 8 58° 56% - - 42° 58.5° 57.2° - - -
3/29 12:20am 42 5 G 7 58° 54% - - 41° 58.5° 57.3° - - -
3/29 12:10am 53 3 G 7 58° 54% - - 41° 58.5° 57.3° - - -
3/29 12:00am 72 2 G 4 58° 54% - - 41° 70.9° 50.7° - - -
3/28 11:50pm 83 3 G 5 58° 52% - - 41° 70.9° 50.7° - - -
3/28 11:40pm 80 2 G 5 58° 56% - - 42° 70.9° 50.7° - - -
3/28 11:30pm 62 1 G 3 58° 57% - - 43° 70.9° 50.7° - - -
3/28 11:20pm 73 1 G 2 59° 54% - - 42° 70.9° 50.7° - - -
3/28 11:10pm 84 2 G 4 60° 50% - - 41° 70.9° 50.7° - - -
3/28 11:00pm 81 2 G 5 60° 53% - - 42° 70.9° 50.7° - - -
3/28 10:50pm 82 2 G 5 59° 56% - - 43° 70.9° 50.7° - - -
3/28 10:40pm 86 1 G 3 60° 57% - - 44° 70.9° 50.7° - - -
3/28 10:30pm 90 3 G 4 60° 52% - - 43° 70.9° 50.7° - - -
3/28 10:20pm 96 2 G 4 60° 62% - - 47° 70.9° 50.7° - - -
3/28 10:10pm 83 3 G 4 60° 65% - - 48° 70.9° 50.7° - - -
3/28 10:00pm 110 2 G 2 60° 64% - - 48° 70.9° 50.7° - - -
3/28 9:50pm 92 1 G 3 60° 71% - - 50° 70.9° 50.7° - - -
3/28 9:40pm 123 2 G 3 60° 70% - - 50° 70.9° 50.7° - - -
3/28 9:30pm 123 2 G 3 60° 70% - - 50° 70.9° 50.7° - - -
3/28 9:20pm 127 1 G 3 60° 72% - - 50° 70.9° 50.7° - - -
3/28 9:10pm 119 0 G 1 60° 71% - - 50° 70.9° 50.7° - - -
3/28 9:00pm 71 1 G 2 60° 69% - - 49° 70.9° 50.7° - - -
3/28 8:50pm 155 2 G 4 60° 64% - - 48° 70.9° 50.7° - - -
3/28 8:40pm 173 2 G 4 60° 64% - - 48° 70.9° 50.7° - - -
3/28 8:30pm 181 1 G 4 62° 46% - - 41° 70.9° 50.7° - - -
3/28 8:20pm 237 1 G 2 63° 39% - - 38° 70.9° 50.7° - - -
3/28 8:10pm 333 0 G 2 63° 40% - - 38° 70.9° 50.7° - - -
3/28 8:00pm 327 0 G 1 63° 38% - - 38° 70.9° 50.7° - - -
3/28 7:50pm 249 1 G 3 63° 39% - - 38° 70.9° 50.7° - - -
3/28 7:40pm 287 1 G 2 64° 40% - - 39° 70.9° 50.7° - - -
3/28 7:30pm 260 1 G 3 64° 41% - - 40° 70.9° 50.7° - - -
3/28 7:20pm 284 2 G 3 64° 39% - - 39° 70.9° 50.7° - - -
3/28 7:10pm 256 1 G 2 64° 36% - - 37° 70.9° 50.7° - - -
3/28 7:00pm 309 4 G 6 65° 34% - - 36° 70.9° 50.7° - - -
3/28 6:50pm 321 5 G 8 65° 35% - - 37° 70.9° 50.7° - - -
3/28 6:40pm 308 4 G 8 66° 42% - - 42° 70.9° 50.7° - - -
3/28 6:30pm 286 4 G 7 66° 45% - - 44° 70.9° 50.7° - - -
3/28 6:20pm 266 5 G 7 66° 45% - - 44° 70.9° 50.7° - - -
3/28 6:10pm 275 6 G 9 66° 43% - - 43° 70.9° 50.7° - - -
3/28 6:00pm 260 6 G 12 66° 42% - - 42° 70.9° 50.7° - - -
3/28 5:50pm 265 7 G 12 66° 45% - - 44° 70.9° 50.7° - - -
3/28 5:40pm 267 5 G 10 67° 45% - - 45° 70.9° 50.7° - - -
3/28 5:30pm 274 6 G 12 67° 46% - - 45° 70.9° 50.7° - - -
3/28 5:20pm 277 7 G 11 67° 47% - - 46° 70.9° 50.7° - - -
3/28 5:10pm 264 6 G 11 67° 46% - - 46° 70.9° 50.7° - - -
3/28 5:00pm 276 8 G 12 67° 48% - - 47° 70.9° 50.7° - - -
3/28 4:50pm 272 7 G 13 68° 48% - - 47° 70.9° 50.7° - - -
3/28 4:40pm 270 7 G 13 68° 47% - - 47° 70.9° 50.7° - - -
3/28 4:30pm 270 7 G 13 68° 45% - - 46° 70.9° 50.7° - - -
3/28 4:20pm 265 7 G 12 69° 43% - - 46° 70.9° 50.7° - - -
3/28 4:10pm 284 6 G 12 69° 43% - - 46° 70.9° 50.7° - - -
3/28 4:00pm 275 6 G 13 69° 44% - - 46° 70.9° 50.7° - - -
3/28 3:50pm 266 6 G 12 70° 41% - - 45° 70.9° 50.7° - - -
3/28 3:40pm 261 7 G 12 69° 39% - - 43° 70.9° 50.7° - - -
3/28 3:30pm 275 5 G 11 69° 39% - - 43° 70.9° 50.7° - - -
3/28 3:20pm 282 7 G 13 69° 40% - - 43° 70.9° 50.7° - - -
3/28 3:10pm 272 7 G 13 69° 39% - - 43° 70.9° 50.7° - - -
3/28 3:00pm 279 6 G 12 69° 40% - - 44° 70.9° 50.7° - - -
3/28 2:50pm 285 7 G 12 69° 40% - - 43° 70.9° 50.7° - - -
3/28 2:40pm 286 7 G 15 69° 40% - - 43° 70.9° 50.7° - - -
3/28 2:30pm 285 8 G 14 69° 39% - - 43° 70.9° 50.7° - - -
3/28 2:20pm 289 7 G 12 70° 40% - - 44° 70.9° 50.7° - - -
3/28 2:10pm 303 6 G 11 70° 43% - - 47° 70.9° 50.7° - - -
3/28 2:00pm 282 6 G 12 69° 48% - - 48° 70.1° 50.7° - - -
3/28 1:50pm 292 6 G 11 69° 50% - - 49° 69.7° 50.7° - - -
3/28 1:40pm 292 6 G 12 68° 51% - - 50° 69.7° 50.7° - - -
3/28 1:30pm 285 7 G 12 68° 53% - - 51° 69.7° 50.7° - - -
3/28 1:20pm 273 5 G 11 68° 53% - - 51° 69.3° 50.7° - - -
3/28 1:10pm 288 5 G 11 68° 54% - - 51° 69.3° 50.7° - - -
3/28 1:00pm 220 5 G 11 68° 56% - - 52° 69.2° 50.7° - - -
3/28 12:50pm 233 5 G 9 68° 56% - - 52° 68.7° 50.7° - - -
3/28 12:40pm 229 5 G 12 67° 58% - - 52° 68.2° 50.7° - - -
3/28 12:30pm 202 5 G 10 66° 61% - - 53° 68.2° 50.7° - - -
3/28 12:20pm 218 5 G 10 67° 60% - - 52° 68.2° 50.7° - - -
3/28 12:10pm 212 4 G 7 67° 59% - - 52° 68.2° 50.7° - - -
3/28 12:00pm 221 4 G 8 67° 60% - - 52° 68.2° 50.7° - - -
3/28 11:50am 238 5 G 11 67° 56% - - 51° 68.2° 50.7° - - -
3/28 11:40am 293 4 G 10 67° 44% - - 45° 68.2° 50.7° - - -
3/28 11:30am 302 3 G 9 67° 47% - - 46° 67.7° 50.7° - - -
3/28 11:20am 328 3 G 8 66° 47% - - 46° 67.3° 50.7° - - -
3/28 11:10am 337 4 G 8 66° 47% - - 45° 66.4° 50.7° - - -
3/28 11:00am 318 3 G 11 65° 53% - - 47° 66.1° 50.7° - - -
3/28 10:50am 320 5 G 9 64° 53% - - 47° 65.2° 50.7° - - -
3/28 10:40am 335 5 G 10 64° 54% - - 47° 64.7° 50.7° - - -
3/28 10:30am 344 3 G 9 63° 57% - - 47° 64° 50.7° - - -
3/28 10:20am 355 4 G 7 62° 57% - - 47° 63.1° 50.7° - - -
3/28 10:10am 344 5 G 8 62° 58% - - 47° 62.3° 50.7° - - -
3/28 10:00am 296 4 G 9 61° 63% - - 49° 61.9° 50.7° - - -
3/28 9:50am 299 4 G 6 60° 64% - - 48° 61.3° 50.7° - - -
3/28 9:40am 305 3 G 5 60° 65% - - 48° 61° 50.7° - - -
3/28 9:30am 346 3 G 5 60° 66% - - 48° 60.8° 50.7° - - -
3/28 9:20am 297 3 G 5 59° 67% - - 48° 59.3° 50.7° - - -
3/28 9:10am 302 2 G 5 59° 66% - - 47° 59.3° 50.7° - - -
3/28 9:00am 12 3 G 5 58° 65% - - 46° 58.6° 50.7° - - -
3/28 8:50am 21 2 G 4 58° 66% - - 46° 58.5° 50.7° - - -
3/28 8:40am 12 2 G 3 56° 68% - - 46° 57.3° 50.7° - - -
3/28 8:30am 22 2 G 8 55° 72% - - 46° 56.1° 50.7° - - -
3/28 8:20am 29 4 G 6 54° 75% - - 46° 55.3° 50.7° - - -
3/28 8:10am 30 4 G 7 53° 78% - - 47° 55.3° 50.7° - - -
3/28 8:00am 34 5 G 8 53° 78% - - 47° 55.3° 50.7° - - -
3/28 7:50am 39 3 G 7 53° 79% - - 47° 55.3° 50.7° - - -
3/28 7:40am 13 3 G 5 52° 83% - - 47° 55.3° 50.7° - - -
3/28 7:30am 22 2 G 4 52° 85% - - 47° 55.3° 50.7° - - -
3/28 7:20am 78 3 G 7 52° 86% - - 48° 55.3° 50.7° - - -
3/28 7:10am 53 2 G 4 51° 86% - - 47° 55.3° 50.7° - - -
3/28 7:00am 64 3 G 5 51° 86% - - 47° 55.3° 50.7° - - -
3/28 6:50am 47 4 G 8 51° 86% - - 47° 55.3° 50.7° - - -
3/28 6:40am 53 3 G 7 51° 87% - - 48° 55.3° 51° - - -
3/28 6:30am 64 2 G 4 51° 87% - - 48° 55.3° 51° - - -
3/28 6:20am 85 1 G 3 51° 89% - - 48° 55.3° 51° - - -
3/28 6:10am 38 1 G 3 52° 90% - - 49° 55.3° 51° - - -
3/28 6:00am 104 1 G 2 52° 90% - - 49° 55.3° 51.6° - - -